createdAt,value
2022-09-12T00:00:51.537Z,97333.78
2022-09-12T00:03:18.165Z,97339.75
2022-09-12T00:05:46.747Z,97334.19
2022-09-12T00:08:13.933Z,97340.44
2022-09-12T00:10:42.235Z,97339.97
2022-09-12T00:13:09.023Z,97339.50
2022-09-12T00:15:43.331Z,97330.50
2022-09-12T00:18:13.888Z,97334.94
2022-09-12T00:20:44.853Z,97332.16
2022-09-12T00:23:12.392Z,97336.94
2022-09-12T00:25:43.598Z,97332.38
2022-09-12T00:28:10.861Z,97324.78
2022-09-12T00:30:44.459Z,97332.69
2022-09-12T00:33:11.759Z,97322.69
2022-09-12T00:35:46.544Z,97315.25
2022-09-12T00:38:14.183Z,97316.91
2022-09-12T00:40:41.637Z,97320.22
2022-09-12T00:43:30.078Z,97325.13
2022-09-12T00:45:57.794Z,97321.84
2022-09-12T00:48:31.030Z,97317.88
2022-09-12T00:50:58.240Z,97314.63
2022-09-12T00:53:25.630Z,97312.34
2022-09-12T00:55:53.283Z,97312.63
2022-09-12T00:58:23.798Z,97307.50
2022-09-12T01:00:50.454Z,97301.59
2022-09-12T01:03:19.795Z,97296.38
2022-09-12T01:05:56.559Z,97295.25
2022-09-12T01:08:23.474Z,97295.59
2022-09-12T01:10:50.103Z,97287.06
2022-09-12T01:13:16.640Z,97290.03
2022-09-12T01:15:43.181Z,97291.69
2022-09-12T01:18:42.679Z,97277.34
2022-09-12T01:21:11.677Z,97274.88
2022-09-12T01:24:01.899Z,97277.84
2022-09-12T01:26:40.498Z,97276.03
2022-09-12T01:29:31.816Z,97278.72
2022-09-12T01:32:04.571Z,97281.03
2022-09-12T01:34:37.260Z,97279.38
2022-09-12T01:37:14.733Z,97287.09
2022-09-12T01:40:28.908Z,97278.75
2022-09-12T01:43:03.579Z,97280.59
2022-09-12T01:45:34.152Z,97283.56
2022-09-12T01:48:17.198Z,97276.97
2022-09-12T01:51:26.657Z,97275.31
2022-09-12T01:54:03.962Z,97275.31
2022-09-12T01:56:33.439Z,97277.47
2022-09-12T01:59:08.690Z,97263.19
2022-09-12T02:01:38.544Z,97273.88
2022-09-12T02:04:16.220Z,97260.72
2022-09-12T02:06:52.726Z,97267.63
2022-09-12T02:09:26.310Z,97262.84
2022-09-12T02:11:58.285Z,97267.44
2022-09-12T02:14:38.231Z,97262.84
2022-09-12T02:17:12.131Z,97263.47
2022-09-12T02:19:46.184Z,97260.72
2022-09-12T02:22:16.187Z,97255.66
2022-09-12T02:24:46.871Z,97259.28
2022-09-12T02:27:40.363Z,97261.63
2022-09-12T02:30:08.820Z,97251.59
2022-09-12T02:32:48.377Z,97254.41
2022-09-12T02:35:31.181Z,97250.44
2022-09-12T02:38:15.063Z,97257.16
2022-09-12T02:40:41.964Z,97264.22
2022-09-12T02:43:08.608Z,97245.81
2022-09-12T02:45:35.763Z,97253.53
2022-09-12T02:48:15.355Z,97254.34
2022-09-12T02:50:42.174Z,97251.41
2022-09-12T02:53:09.519Z,97240.41
2022-09-12T02:55:36.949Z,97251.75
2022-09-12T02:58:05.657Z,97246.34
2022-09-12T03:00:38.157Z,97242.56
2022-09-12T03:03:07.556Z,97246.69
2022-09-12T03:05:54.523Z,97256.22
2022-09-12T03:08:51.751Z,97250.00
2022-09-12T03:11:31.497Z,97240.28
2022-09-12T03:14:11.140Z,97242.94
2022-09-12T03:16:59.453Z,97240.94
2022-09-12T03:19:59.170Z,97239.31
2022-09-12T03:22:28.668Z,97234.88
2022-09-12T03:24:58.538Z,97237.34
2022-09-12T03:27:57.257Z,97240.13
2022-09-12T03:30:23.798Z,97239.31
2022-09-12T03:32:53.792Z,97233.72
2022-09-12T03:35:23.253Z,97241.13
2022-09-12T03:37:51.386Z,97235.22
2022-09-12T03:40:18.342Z,97233.91
2022-09-12T03:42:44.911Z,97229.47
2022-09-12T03:45:11.628Z,97230.47
2022-09-12T03:47:38.212Z,97234.41
2022-09-12T03:50:05.141Z,97238.34
2022-09-12T03:52:31.783Z,97240.47
2022-09-12T03:54:58.320Z,97238.34
2022-09-12T03:57:24.993Z,97232.75
2022-09-12T03:59:51.541Z,97238.00
2022-09-12T04:02:18.173Z,97237.19
2022-09-12T04:04:46.254Z,97236.72
2022-09-12T04:07:12.824Z,97235.06
2022-09-12T04:09:39.371Z,97226.53
2022-09-12T04:12:06.388Z,97238.69
2022-09-12T04:14:32.902Z,97232.09
2022-09-12T04:16:59.701Z,97237.03
2022-09-12T04:19:26.871Z,97235.06
2022-09-12T04:21:53.732Z,97238.34
2022-09-12T04:24:20.263Z,97238.50
2022-09-12T04:26:46.834Z,97219.13
2022-09-12T04:29:14.996Z,97229.16
2022-09-12T04:31:41.897Z,97231.97
2022-09-12T04:34:08.766Z,97229.00
2022-09-12T04:36:35.707Z,97222.91
2022-09-12T04:39:03.438Z,97230.28
2022-09-12T04:41:32.369Z,97228.31
2022-09-12T04:44:07.580Z,97232.75
2022-09-12T04:46:36.580Z,97235.06
2022-09-12T04:49:03.512Z,97231.31
2022-09-12T04:51:33.779Z,97235.22
2022-09-12T04:54:02.837Z,97230.78
2022-09-12T04:56:29.940Z,97224.91
2022-09-12T04:58:58.243Z,97226.53
2022-09-12T05:01:24.983Z,97226.38
2022-09-12T05:03:52.890Z,97225.88
2022-09-12T05:06:21.847Z,97218.63
2022-09-12T05:08:48.521Z,97221.44
2022-09-12T05:11:21.512Z,97224.53
2022-09-12T05:13:50.794Z,97224.19
2022-09-12T05:16:18.557Z,97220.56
2022-09-12T05:18:45.868Z,97225.84
2022-09-12T05:21:14.031Z,97223.84
2022-09-12T05:23:40.763Z,97225.16
2022-09-12T05:26:07.780Z,97230.41
2022-09-12T05:28:36.676Z,97226.31
2022-09-12T05:31:17.933Z,97224.81
2022-09-12T05:33:46.617Z,97221.88
2022-09-12T05:36:31.672Z,97226.44
2022-09-12T05:39:00.010Z,97226.75
2022-09-12T05:41:30.765Z,97229.56
2022-09-12T05:43:59.504Z,97232.84
2022-09-12T05:46:30.952Z,97219.84
2022-09-12T05:48:58.439Z,97222.63
2022-09-12T05:51:29.000Z,97222.41
2022-09-12T05:53:57.405Z,97220.91
2022-09-12T05:56:28.861Z,97220.69
2022-09-12T05:59:03.476Z,97220.84
2022-09-12T06:01:31.192Z,97219.97
2022-09-12T06:04:00.940Z,97224.25
2022-09-12T06:06:28.758Z,97225.81
2022-09-12T06:09:01.109Z,97219.66
2022-09-12T06:11:30.272Z,97224.16
2022-09-12T06:13:58.107Z,97221.25
2022-09-12T06:16:27.177Z,97218.41
2022-09-12T06:18:58.520Z,97220.25
2022-09-12T06:21:25.411Z,97226.75
2022-09-12T06:23:54.141Z,97218.56
2022-09-12T06:26:25.670Z,97215.00
2022-09-12T06:28:54.013Z,97219.88
2022-09-12T06:31:22.663Z,97214.81
2022-09-12T06:33:51.821Z,97213.34
2022-09-12T06:36:24.708Z,97217.03
2022-09-12T06:38:57.132Z,97211.13
2022-09-12T06:41:24.577Z,97207.97
2022-09-12T06:43:51.168Z,97214.84
2022-09-12T06:46:17.795Z,97205.19
2022-09-12T06:48:44.716Z,97202.41
2022-09-12T06:51:14.743Z,97201.63
2022-09-12T06:53:42.279Z,97199.09
2022-09-12T06:56:13.544Z,97201.38
2022-09-12T06:58:40.725Z,97199.78
2022-09-12T07:01:08.659Z,97202.47
2022-09-12T07:03:36.015Z,97199.22
2022-09-12T07:06:07.859Z,97202.91
2022-09-12T07:08:36.839Z,97200.59
2022-09-12T07:11:24.140Z,97191.53
2022-09-12T07:13:56.236Z,97201.81
2022-09-12T07:16:23.676Z,97201.88
2022-09-12T07:18:51.895Z,97202.75
2022-09-12T07:21:18.894Z,97202.13
2022-09-12T07:23:45.717Z,97197.78
2022-09-12T07:26:13.668Z,97203.13
2022-09-12T07:28:40.594Z,97205.53
2022-09-12T07:31:12.831Z,97204.63
2022-09-12T07:33:40.119Z,97203.91
2022-09-12T07:36:18.669Z,97201.78
2022-09-12T07:38:46.511Z,97214.44
2022-09-12T07:41:20.939Z,97212.31
2022-09-12T07:43:48.348Z,97210.94
2022-09-12T07:46:15.036Z,97214.75
2022-09-12T07:48:41.606Z,97213.50
2022-09-12T07:51:10.120Z,97209.06
2022-09-12T07:53:41.616Z,97212.75
2022-09-12T07:56:10.346Z,97212.03
2022-09-12T07:58:38.394Z,97218.66
2022-09-12T08:01:08.802Z,97216.44
2022-09-12T08:03:42.436Z,97214.00
2022-09-12T08:06:10.417Z,97211.00
2022-09-12T08:08:37.281Z,97215.38
2022-09-12T08:11:09.841Z,97219.34
2022-09-12T08:13:38.192Z,97215.75
2022-09-12T08:16:07.183Z,97224.22
2022-09-12T08:18:36.363Z,97219.03
2022-09-12T08:21:09.959Z,97220.47
2022-09-12T08:23:36.480Z,97218.69
2022-09-12T08:26:06.368Z,97219.09
2022-09-12T08:28:34.905Z,97219.19
2022-09-12T08:31:02.712Z,97224.19
2022-09-12T08:33:33.590Z,97227.69
2022-09-12T08:36:21.083Z,97225.34
2022-09-12T08:38:49.751Z,97213.41
2022-09-12T08:41:28.045Z,97214.06
2022-09-12T08:44:22.457Z,97209.75
2022-09-12T08:46:57.987Z,97209.41
2022-09-12T08:49:34.408Z,97208.63
2022-09-12T08:52:07.484Z,97206.53
2022-09-12T08:54:34.253Z,97208.13
2022-09-12T08:57:05.695Z,97209.13
2022-09-12T08:59:37.630Z,97211.03
2022-09-12T09:02:06.523Z,97214.19
2022-09-12T09:04:45.267Z,97212.84
2022-09-12T09:07:17.667Z,97212.94
2022-09-12T09:10:07.931Z,97206.66
2022-09-12T09:13:00.895Z,97206.53
2022-09-12T09:15:50.572Z,97211.53
2022-09-12T09:18:23.971Z,97211.47
2022-09-12T09:20:58.233Z,97196.22
2022-09-12T09:23:46.891Z,97206.41
2022-09-12T09:26:16.989Z,97192.84
2022-09-12T09:28:51.712Z,97196.69
2022-09-12T09:31:21.343Z,97187.06
2022-09-12T09:33:51.037Z,97184.13
2022-09-12T09:36:34.829Z,97182.22
2022-09-12T09:39:06.662Z,97177.66
2022-09-12T09:42:01.018Z,97175.22
2022-09-12T09:44:28.818Z,97182.28
2022-09-12T09:46:56.108Z,97176.06
2022-09-12T09:49:23.032Z,97181.97
2022-09-12T09:51:49.543Z,97184.72
2022-09-12T09:54:23.969Z,97184.41
2022-09-12T09:56:50.639Z,97183.63
2022-09-12T09:59:28.796Z,97177.25
2022-09-12T10:01:58.181Z,97175.81
2022-09-12T10:04:27.954Z,97173.56
2022-09-12T10:06:57.067Z,97173.94
2022-09-12T10:09:28.801Z,97167.13
2022-09-12T10:11:56.895Z,97156.25
2022-09-12T10:14:41.174Z,97150.25
2022-09-12T10:17:34.490Z,97150.31
2022-09-12T10:22:48.607Z,97150.88
2022-09-12T10:25:17.008Z,97150.19
2022-09-12T10:27:43.517Z,97154.16
2022-09-12T10:30:18.759Z,97149.72
2022-09-12T10:32:48.761Z,97147.50
2022-09-12T10:35:23.732Z,97151.41
2022-09-12T10:38:07.077Z,97148.91
2022-09-12T10:40:43.158Z,97137.34
2022-09-12T10:43:27.993Z,97145.88
2022-09-12T10:46:17.493Z,97132.34
2022-09-12T10:48:48.605Z,97126.53
2022-09-12T10:51:24.336Z,97131.91
2022-09-12T10:53:52.534Z,97133.03
2022-09-12T10:56:18.973Z,97143.75
2022-09-12T10:58:55.220Z,97129.78
2022-09-12T11:01:41.574Z,97127.47
2022-09-12T11:04:08.089Z,97123.41
2022-09-12T11:06:50.060Z,97126.72
2022-09-12T11:09:28.729Z,97120.25
2022-09-12T11:12:01.260Z,97122.22
2022-09-12T11:14:46.043Z,97111.72
2022-09-12T11:17:31.175Z,97108.56
2022-09-12T11:20:29.997Z,97109.44
2022-09-12T11:23:26.152Z,97112.16
2022-09-12T11:26:11.508Z,97115.59
2022-09-12T11:29:16.887Z,97109.13
2022-09-12T11:32:14.060Z,97104.75
2022-09-12T11:34:59.759Z,97102.13
2022-09-12T11:37:47.841Z,97103.22
2022-09-12T11:40:31.773Z,97098.13
2022-09-12T11:43:03.800Z,97097.03
2022-09-12T11:45:36.733Z,97090.44
2022-09-12T11:48:07.822Z,97083.13
2022-09-12T11:50:34.455Z,97081.91
2022-09-12T11:53:19.071Z,97082.31
2022-09-12T11:56:07.116Z,97089.00
2022-09-12T11:58:33.693Z,97092.88
2022-09-12T12:01:10.563Z,97082.88
2022-09-12T12:03:37.117Z,97077.09
2022-09-12T12:06:07.560Z,97069.16
2022-09-12T12:08:42.634Z,97064.78
2022-09-12T12:11:10.458Z,97066.03
2022-09-12T12:13:46.224Z,97077.47
2022-09-12T12:16:25.135Z,97067.06
2022-09-12T12:18:56.649Z,97073.91
2022-09-12T12:21:32.168Z,97076.59
2022-09-12T12:24:10.513Z,97062.50
2022-09-12T12:26:40.437Z,97072.00
2022-09-12T12:29:17.156Z,97073.09
2022-09-12T12:32:05.743Z,97055.16
2022-09-12T12:34:39.531Z,97058.84
2022-09-12T12:37:29.728Z,97054.78
2022-09-12T12:40:01.294Z,97048.28
2022-09-12T12:42:36.863Z,97042.78
2022-09-12T12:45:29.184Z,97037.03
2022-09-12T12:47:58.015Z,97039.38
2022-09-12T12:50:29.329Z,97029.06
2022-09-12T12:53:17.016Z,97029.78
2022-09-12T12:55:43.474Z,97021.94
2022-09-12T12:58:30.536Z,97021.78
2022-09-12T13:01:09.657Z,97022.31
2022-09-12T13:03:36.790Z,97014.59
2022-09-12T13:06:07.279Z,97020.34
2022-09-12T13:08:34.291Z,97006.72
2022-09-12T13:11:12.192Z,97002.09
2022-09-12T13:13:41.795Z,97009.31
2022-09-12T13:16:12.546Z,97002.63
2022-09-12T13:18:48.690Z,97003.81
2022-09-12T13:21:16.302Z,96991.97
2022-09-12T13:23:43.605Z,96992.88
2022-09-12T13:26:21.505Z,96982.19
2022-09-12T13:28:48.691Z,96977.00
2022-09-12T13:31:24.166Z,96965.44
2022-09-12T13:33:58.497Z,96963.47
2022-09-12T13:36:58.939Z,96960.16
2022-09-12T13:39:46.482Z,96952.78
2022-09-12T13:42:26.089Z,96959.81
2022-09-12T13:44:58.954Z,96955.41
2022-09-12T13:47:30.917Z,96952.31
2022-09-12T13:49:57.807Z,96957.97
2022-09-12T13:52:27.208Z,96957.75
2022-09-12T13:54:56.121Z,96958.97
2022-09-12T13:57:37.714Z,96954.53
2022-09-12T14:00:24.585Z,96956.72
2022-09-12T14:03:11.085Z,96955.69
2022-09-12T14:05:39.476Z,96968.13
2022-09-12T14:08:08.382Z,96960.59
2022-09-12T14:10:36.860Z,96966.16
2022-09-12T14:13:11.949Z,96957.38
2022-09-12T14:15:38.767Z,96961.97
2022-09-12T14:18:07.022Z,96956.16
2022-09-12T14:20:37.217Z,96962.19
2022-09-12T14:23:23.765Z,96951.00
2022-09-12T14:25:50.452Z,96949.81
2022-09-12T14:28:23.551Z,96948.69
2022-09-12T14:31:02.446Z,96937.88
2022-09-12T14:33:32.684Z,96945.63
2022-09-12T14:36:19.768Z,96952.81
2022-09-12T14:38:50.257Z,96953.09
2022-09-12T14:41:24.977Z,96953.91
2022-09-12T14:43:56.096Z,96951.22
2022-09-12T14:46:35.474Z,96954.97
2022-09-12T14:49:35.044Z,96947.41
2022-09-12T14:52:04.080Z,96937.72
2022-09-12T14:54:30.532Z,96947.44
2022-09-12T14:56:59.149Z,96944.75
2022-09-12T14:59:28.761Z,96941.75
2022-09-12T15:02:13.480Z,96947.16
2022-09-12T15:04:45.313Z,96945.84
2022-09-12T15:07:29.213Z,96945.84
2022-09-12T15:09:56.054Z,96938.31
2022-09-12T15:12:22.939Z,96932.91
2022-09-12T15:14:49.479Z,96936.16
2022-09-12T15:17:15.993Z,96931.00
2022-09-12T15:19:42.653Z,96925.38
2022-09-12T15:22:15.126Z,96929.16
2022-09-12T15:24:41.635Z,96918.66
2022-09-12T15:27:12.137Z,96921.34
2022-09-12T15:29:39.221Z,96918.38
2022-09-12T15:32:06.840Z,96918.13
2022-09-12T15:34:33.488Z,96911.88
2022-09-12T15:37:00.004Z,96908.66
2022-09-12T15:39:27.560Z,96906.13
2022-09-12T15:41:54.105Z,96910.84
2022-09-12T15:44:20.945Z,96909.25
2022-09-12T15:46:47.536Z,96913.25
2022-09-12T15:49:14.147Z,96897.38
2022-09-12T15:51:40.640Z,96903.81
2022-09-12T15:54:07.226Z,96892.97
2022-09-12T15:56:33.858Z,96911.97
2022-09-12T15:59:00.549Z,96915.13
2022-09-12T16:01:28.565Z,96907.81
2022-09-12T16:03:55.542Z,96904.00
2022-09-12T16:06:22.565Z,96897.00
2022-09-12T16:08:49.556Z,96899.06
2022-09-12T16:11:27.284Z,96901.72
2022-09-12T16:13:55.437Z,96895.47
2022-09-12T16:16:22.086Z,96895.16
2022-09-12T16:18:48.818Z,96891.91
2022-09-12T16:21:15.946Z,96886.44
2022-09-12T16:23:46.951Z,96890.16
2022-09-12T16:26:13.551Z,96887.19
2022-09-12T16:28:40.398Z,96897.66
2022-09-12T16:31:08.132Z,96886.94
2022-09-12T16:33:35.031Z,96892.47
2022-09-12T16:36:06.933Z,96884.44
2022-09-12T16:38:34.693Z,96873.13
2022-09-12T16:41:05.231Z,96868.53
2022-09-12T16:43:32.863Z,96864.16
2022-09-12T16:46:02.865Z,96871.66
2022-09-12T16:48:30.276Z,96863.56
2022-09-12T16:50:58.540Z,96857.34
2022-09-12T16:53:25.235Z,96855.97
2022-09-12T16:55:51.723Z,96848.94
2022-09-12T16:58:18.239Z,96852.97
2022-09-12T17:00:44.722Z,96848.59
2022-09-12T17:03:11.313Z,96851.19
2022-09-12T17:05:37.971Z,96848.69
2022-09-12T17:08:04.702Z,96853.44
2022-09-12T17:10:32.631Z,96864.59
2022-09-12T17:12:59.288Z,96861.28
2022-09-12T17:15:26.017Z,96854.56
2022-09-12T17:17:52.631Z,96851.56
2022-09-12T17:20:19.221Z,96846.38
2022-09-12T17:22:45.741Z,96847.63
2022-09-12T17:25:12.237Z,96845.63
2022-09-12T17:27:38.747Z,96847.44
2022-09-12T17:30:05.845Z,96850.63
2022-09-12T17:32:32.409Z,96849.50
2022-09-12T17:34:59.213Z,96845.63
2022-09-12T17:37:25.854Z,96843.25
2022-09-12T17:39:52.387Z,96841.88
2022-09-12T17:42:20.153Z,96836.69
2022-09-12T17:44:46.648Z,96826.53
2022-09-12T17:47:13.143Z,96833.22
2022-09-12T17:49:40.288Z,96829.75
2022-09-12T17:52:06.785Z,96841.66
2022-09-12T17:54:33.312Z,96839.88
2022-09-12T17:56:59.815Z,96844.97
2022-09-12T17:59:26.468Z,96844.41
2022-09-12T18:02:11.561Z,96841.47
2022-09-12T18:04:38.787Z,96843.97
2022-09-12T18:07:05.967Z,96852.75
2022-09-12T18:09:32.722Z,96835.19
2022-09-12T18:11:59.425Z,96825.28
2022-09-12T18:14:28.935Z,96835.44
2022-09-12T18:16:57.172Z,96840.31
2022-09-12T18:19:24.520Z,96840.69
2022-09-12T18:21:51.072Z,96838.28
2022-09-12T18:24:17.625Z,96834.34
2022-09-12T18:26:44.894Z,96837.22
2022-09-12T18:29:12.556Z,96829.47
2022-09-12T18:31:39.193Z,96837.81
2022-09-12T18:34:06.804Z,96840.13
2022-09-12T18:36:33.375Z,96853.00
2022-09-12T18:39:00.823Z,96844.75
2022-09-12T18:41:28.976Z,96844.53
2022-09-12T18:43:56.599Z,96836.31
2022-09-12T18:46:23.610Z,96831.28
2022-09-12T18:48:50.556Z,96828.03
2022-09-12T18:51:19.867Z,96830.44
2022-09-12T18:53:58.280Z,96828.34
2022-09-12T18:56:27.694Z,96831.28
2022-09-12T18:58:57.713Z,96821.66
2022-09-12T19:01:26.810Z,96815.00
2022-09-12T19:03:54.266Z,96813.53
2022-09-12T19:06:29.123Z,96823.59
2022-09-12T19:08:56.964Z,96815.88
2022-09-12T19:11:24.144Z,96823.63
2022-09-12T19:13:52.027Z,96830.59
2022-09-12T19:16:24.075Z,96837.69
2022-09-12T19:18:52.366Z,96835.25
2022-09-12T19:21:22.377Z,96825.69
2022-09-12T19:23:49.199Z,96827.88
2022-09-12T19:26:16.923Z,96819.53
2022-09-12T19:28:43.707Z,96812.53
2022-09-12T19:31:12.379Z,96807.44
2022-09-12T19:33:39.164Z,96798.25
2022-09-12T19:36:27.268Z,96801.31
2022-09-12T19:38:55.113Z,96806.81
2022-09-12T19:41:21.947Z,96804.16
2022-09-12T19:43:48.460Z,96818.88
2022-09-12T19:46:19.956Z,96817.25
2022-09-12T19:48:47.214Z,96821.84
2022-09-12T19:51:14.849Z,96810.13
2022-09-12T19:53:41.815Z,96803.19
2022-09-12T19:56:09.302Z,96809.19
2022-09-12T19:58:41.183Z,96804.09
2022-09-12T20:01:20.356Z,96790.84
2022-09-12T20:03:47.446Z,96793.19
2022-09-12T20:06:16.198Z,96807.72
2022-09-12T20:08:43.953Z,96799.81
2022-09-12T20:11:13.078Z,96795.03
2022-09-12T20:13:40.222Z,96786.31
2022-09-12T20:16:11.103Z,96780.31
2022-09-12T20:18:38.134Z,96785.38
2022-09-12T20:21:16.379Z,96793.28
2022-09-12T20:23:43.286Z,96789.38
2022-09-12T20:26:10.801Z,96783.94
2022-09-12T20:28:38.032Z,96786.41
2022-09-12T20:31:08.397Z,96789.97
2022-09-12T20:33:34.965Z,96792.81
2022-09-12T20:36:13.451Z,96786.44
2022-09-12T20:38:41.035Z,96790.31
2022-09-12T20:41:12.348Z,96791.38
2022-09-12T20:43:39.755Z,96801.44
2022-09-12T20:46:07.386Z,96800.16
2022-09-12T20:48:34.003Z,96796.22
2022-09-12T20:51:00.874Z,96801.09
2022-09-12T20:53:30.639Z,96796.94
2022-09-12T20:56:01.029Z,96796.00
2022-09-12T20:58:27.547Z,96791.16
2022-09-12T21:00:54.161Z,96788.25
2022-09-12T21:03:20.651Z,96789.19
2022-09-12T21:05:47.183Z,96788.13
2022-09-12T21:08:14.432Z,96781.06
2022-09-12T21:10:42.294Z,96770.78
2022-09-12T21:13:12.847Z,96771.13
2022-09-12T21:15:39.999Z,96785.47
2022-09-12T21:18:07.070Z,96773.91
2022-09-12T21:20:33.785Z,96781.19
2022-09-12T21:23:00.349Z,96781.66
2022-09-12T21:25:28.942Z,96768.19
2022-09-12T21:27:55.527Z,96768.41
2022-09-12T21:30:22.307Z,96764.19
2022-09-12T21:32:48.885Z,96753.28
2022-09-12T21:35:15.548Z,96745.84
2022-09-12T21:37:42.040Z,96748.16
2022-09-12T21:40:08.962Z,96754.28
2022-09-12T21:42:35.562Z,96753.47
2022-09-12T21:45:02.229Z,96742.22
2022-09-12T21:47:28.757Z,96735.66
2022-09-12T21:49:55.402Z,96734.03
2022-09-12T21:52:22.037Z,96732.41
2022-09-12T21:54:48.592Z,96726.50
2022-09-12T21:57:15.154Z,96737.91
2022-09-12T21:59:41.665Z,96728.06
2022-09-12T22:02:08.763Z,96724.69
2022-09-12T22:04:35.338Z,96711.81
2022-09-12T22:07:02.164Z,96719.59
2022-09-12T22:09:28.656Z,96714.28
2022-09-12T22:11:55.650Z,96715.16
2022-09-12T22:14:22.143Z,96714.13
2022-09-12T22:16:49.455Z,96717.75
2022-09-12T22:19:16.159Z,96711.94
2022-09-12T22:22:02.644Z,96712.19
2022-09-12T22:24:29.388Z,96720.78
2022-09-12T22:26:56.792Z,96712.50
2022-09-12T22:29:23.532Z,96730.34
2022-09-12T22:31:50.414Z,96729.91
2022-09-12T22:34:16.969Z,96729.22
2022-09-12T22:36:44.237Z,96722.88
2022-09-12T22:39:10.805Z,96718.63
2022-09-12T22:41:37.559Z,96725.94
2022-09-12T22:44:04.237Z,96724.19
2022-09-12T22:46:30.865Z,96723.84
2022-09-12T22:48:57.404Z,96723.03
2022-09-12T22:51:24.037Z,96725.72
2022-09-12T22:53:51.466Z,96720.50
2022-09-12T22:56:18.044Z,96730.00
2022-09-12T22:58:44.670Z,96741.03
2022-09-12T23:01:11.638Z,96739.84
2022-09-12T23:03:38.719Z,96734.09
2022-09-12T23:06:06.004Z,96730.81
2022-09-12T23:08:34.905Z,96719.84
2022-09-12T23:11:11.841Z,96719.44
2022-09-12T23:13:38.906Z,96735.66
2022-09-12T23:16:07.995Z,96737.53
2022-09-12T23:18:36.188Z,96745.16
2022-09-12T23:21:05.124Z,96741.25
2022-09-12T23:23:31.945Z,96733.47
2022-09-12T23:26:13.435Z,96724.34
2022-09-12T23:28:41.009Z,96715.38
2022-09-12T23:31:09.498Z,96712.13
2022-09-12T23:33:36.619Z,96718.31
2022-09-12T23:36:06.740Z,96721.53
2022-09-12T23:38:35.089Z,96735.94
2022-09-12T23:41:03.372Z,96733.16
2022-09-12T23:43:30.332Z,96722.84
2022-09-12T23:45:58.046Z,96734.34
2022-09-12T23:48:24.763Z,96721.97
2022-09-12T23:50:51.755Z,96732.38
2022-09-12T23:53:18.425Z,96722.03
2022-09-12T23:55:45.415Z,96719.56
2022-09-12T23:58:12.628Z,96715.78
